Time;durP1;ratioP1;P1;durP2;ratioP2;P2;SDS_P1;SDS_P2;PMS_P1;PMS_P2;Temp;Humidity;BMP_temperature;BMP_pressure;BME280_temperature;BME280_humidity;BME280_pressure;Samples;Min_cycle;Max_cycle;Signal;HPM_P1;HPM_P2
2024/01/02 00:01:29;;;;;;;16.17;1.15;;;7.10;99.90;;;;;;5111612;28;20417;-80
2024/01/02 00:03:54;;;;;;;13.25;1.55;;;7.10;99.90;;;;;;5112067;28;20088;-80
2024/01/02 00:06:20;;;;;;;15.98;1.48;;;7.10;99.90;;;;;;5109443;28;20024;-80
2024/01/02 00:08:46;;;;;;;14.30;1.50;;;7.10;99.90;;;;;;5101118;28;20064;-80
2024/01/02 00:11:12;;;;;;;15.10;1.35;;;7.10;99.90;;;;;;5106078;28;20383;-80
2024/01/02 00:13:38;;;;;;;11.38;0.90;;;7.20;99.90;;;;;;5109257;28;20024;-81
2024/01/02 00:16:03;;;;;;;18.13;1.33;;;7.10;99.90;;;;;;5093564;28;20101;-80
2024/01/02 00:18:29;;;;;;;10.90;1.50;;;7.20;99.90;;;;;;5106451;28;20478;-80
2024/01/02 00:20:56;;;;;;;11.95;1.30;;;7.20;99.90;;;;;;5100405;28;20035;-79
2024/01/02 00:23:21;;;;;;;15.85;1.17;;;7.20;99.90;;;;;;5109478;28;20498;-80
2024/01/02 00:25:47;;;;;;;12.10;1.25;;;7.20;99.90;;;;;;5112158;28;20102;-79
2024/01/02 00:28:13;;;;;;;9.35;0.93;;;7.20;99.90;;;;;;5110654;28;20079;-80
2024/01/02 00:30:40;;;;;;;14.75;1.30;;;7.30;99.90;;;;;;5089622;28;20047;-79
2024/01/02 00:33:06;;;;;;;15.48;1.40;;;7.30;99.90;;;;;;5108861;28;20031;-80
2024/01/02 00:35:33;;;;;;;11.18;0.80;;;7.30;99.90;;;;;;5110418;28;20020;-80
2024/01/02 00:38:00;;;;;;;15.60;0.90;;;7.30;99.90;;;;;;5091746;28;20079;-80
2024/01/02 00:40:25;;;;;;;11.25;1.52;;;7.30;99.90;;;;;;5108979;28;20038;-80
2024/01/02 00:42:51;;;;;;;14.00;0.90;;;7.30;99.90;;;;;;5109911;28;20463;-80
2024/01/02 00:45:17;;;;;;;10.32;0.77;;;7.30;99.90;;;;;;5109173;28;20416;-80
2024/01/02 00:47:42;;;;;;;11.88;0.80;;;7.40;99.90;;;;;;5105621;28;20035;-80
2024/01/02 00:50:09;;;;;;;9.32;1.17;;;7.30;99.90;;;;;;5099494;28;20027;-80
2024/01/02 00:52:34;;;;;;;12.23;0.80;;;7.40;99.90;;;;;;5110371;28;20498;-80
2024/01/02 00:55:01;;;;;;;9.05;0.60;;;7.40;99.90;;;;;;5110483;28;20019;-81
2024/01/02 00:57:27;;;;;;;8.25;1.08;;;7.40;99.90;;;;;;5111346;28;20027;-80
2024/01/02 00:59:52;;;;;;;7.28;0.73;;;7.40;99.90;;;;;;5092715;28;20517;-79
2024/01/02 01:02:18;;;;;;;8.82;0.80;;;7.50;99.90;;;;;;5101573;28;20038;-80
2024/01/02 01:04:44;;;;;;;5.15;0.55;;;7.40;99.90;;;;;;5100574;28;20051;-80
2024/01/02 01:07:10;;;;;;;4.90;0.57;;;7.50;99.90;;;;;;5112054;28;20035;-80
2024/01/02 01:09:36;;;;;;;8.00;1.00;;;7.50;99.90;;;;;;5109306;28;20808;-80
2024/01/02 01:12:03;;;;;;;8.63;0.77;;;7.50;99.90;;;;;;5108203;28;20034;-80
2024/01/02 01:14:29;;;;;;;9.93;0.90;;;7.50;99.90;;;;;;5109905;28;20027;-80
2024/01/02 01:16:54;;;;;;;7.63;0.55;;;7.50;99.90;;;;;;5104788;28;20035;-81
2024/01/02 01:19:20;;;;;;;4.85;0.40;;;7.50;99.90;;;;;;5109195;28;20107;-80
2024/01/02 01:21:45;;;;;;;7.07;1.02;;;7.50;99.90;;;;;;5091700;28;20424;-80
2024/01/02 01:24:11;;;;;;;6.60;0.60;;;7.50;99.90;;;;;;5092866;28;20027;-81
2024/01/02 01:26:36;;;;;;;2.55;0.60;;;7.50;99.90;;;;;;5085756;28;20518;-82
2024/01/02 01:29:02;;;;;;;6.40;0.40;;;7.50;99.90;;;;;;5090466;28;20016;-81
2024/01/02 01:31:28;;;;;;;6.47;0.40;;;7.50;99.90;;;;;;5087227;28;20517;-80
2024/01/02 01:33:54;;;;;;;7.57;0.30;;;7.60;99.90;;;;;;5093654;28;20051;-81
2024/01/02 01:36:20;;;;;;;7.72;0.60;;;7.50;99.90;;;;;;5092126;28;20063;-80
2024/01/02 01:38:45;;;;;;;3.88;0.40;;;7.50;99.90;;;;;;5112174;28;20062;-80
2024/01/02 01:41:11;;;;;;;7.65;0.50;;;7.50;99.90;;;;;;5106338;28;20035;-80
2024/01/02 01:43:36;;;;;;;3.75;0.30;;;7.50;99.90;;;;;;5110359;28;20023;-80
2024/01/02 01:46:04;;;;;;;5.95;0.40;;;7.50;99.90;;;;;;5090295;28;20055;-80
2024/01/02 01:48:30;;;;;;;4.85;0.50;;;7.50;99.90;;;;;;5109150;28;20035;-80
2024/01/02 01:50:56;;;;;;;3.83;0.40;;;7.50;99.90;;;;;;5092196;28;20372;-80
2024/01/02 01:53:22;;;;;;;2.10;0.50;;;7.50;99.90;;;;;;5106945;28;20080;-80
2024/01/02 01:55:48;;;;;;;3.97;0.30;;;7.50;99.90;;;;;;5100305;28;20024;-80
2024/01/02 01:58:16;;;;;;;5.35;0.30;;;7.50;99.90;;;;;;5091016;28;20020;-80
2024/01/02 02:00:42;;;;;;;5.05;0.20;;;7.50;99.90;;;;;;5106594;28;20024;-80
2024/01/02 02:03:08;;;;;;;2.10;0.20;;;7.50;99.90;;;;;;5092181;28;20027;-80
2024/01/02 02:05:35;;;;;;;7.30;0.30;;;7.50;99.90;;;;;;5110822;28;20019;-80
2024/01/02 02:08:01;;;;;;;2.33;0.20;;;7.50;99.90;;;;;;5110818;28;20051;-80
2024/01/02 02:10:30;;;;;;;1.63;0.10;;;7.50;99.90;;;;;;5099934;28;20020;-80
2024/01/02 02:12:57;;;;;;;2.45;0.10;;;7.50;99.90;;;;;;5104895;28;20028;-80
2024/01/02 02:15:23;;;;;;;4.28;0.20;;;7.50;99.90;;;;;;5114595;28;20068;-80
2024/01/02 02:17:49;;;;;;;1.67;0.20;;;7.60;99.90;;;;;;5112613;28;20526;-80
2024/01/02 02:20:15;;;;;;;1.63;0.10;;;7.60;99.90;;;;;;5112076;28;20035;-80
2024/01/02 02:22:51;;;;;;;1.48;0.30;;;7.50;99.90;;;;;;5114494;28;20502;-80
2024/01/02 02:25:18;;;;;;;3.75;0.22;;;7.60;99.90;;;;;;5111393;28;20023;-80
2024/01/02 02:27:45;;;;;;;2.85;0.10;;;7.60;99.90;;;;;;5098274;28;20403;-80
2024/01/02 02:30:11;;;;;;;1.13;0.20;;;7.60;99.90;;;;;;5110083;28;20024;-80
2024/01/02 02:32:36;;;;;;;1.50;0.32;;;7.50;99.90;;;;;;5109126;28;20076;-80
2024/01/02 02:35:02;;;;;;;0.50;0.10;;;7.60;99.90;;;;;;5110710;28;20020;-80
2024/01/02 02:37:28;;;;;;;2.70;0.20;;;7.60;99.90;;;;;;5099282;28;20023;-79
2024/01/02 02:39:53;;;;;;;2.05;0.20;;;7.50;99.90;;;;;;5109327;28;20110;-79
2024/01/02 02:42:19;;;;;;;0.65;0.20;;;7.50;99.90;;;;;;5112678;28;20058;-78
2024/01/02 02:44:45;;;;;;;2.95;0.10;;;7.50;99.90;;;;;;5103028;28;20019;-79
2024/01/02 02:47:10;;;;;;;1.63;0.20;;;7.60;99.90;;;;;;5109926;28;20136;-79
2024/01/02 02:49:39;;;;;;;1.65;0.10;;;7.50;99.90;;;;;;5111314;28;20547;-78
2024/01/02 02:52:06;;;;;;;0.70;0.30;;;7.50;99.90;;;;;;5101654;28;20055;-78
2024/01/02 02:54:31;;;;;;;0.88;0.03;;;7.50;99.90;;;;;;5078557;28;20032;-78
2024/01/02 02:56:57;;;;;;;1.75;0.10;;;7.50;99.90;;;;;;5105101;28;20016;-79
2024/01/02 02:59:22;;;;;;;2.90;0.10;;;7.60;99.90;;;;;;5105123;28;20024;-78
2024/01/02 03:01:48;;;;;;;0.22;0.00;;;7.60;99.90;;;;;;5110486;28;20386;-78
2024/01/02 03:04:14;;;;;;;1.10;0.10;;;7.60;99.90;;;;;;5113232;28;20032;-79
2024/01/02 03:06:39;;;;;;;0.25;0.20;;;7.60;99.90;;;;;;5109459;28;20027;-79
2024/01/02 03:09:06;;;;;;;1.42;0.10;;;7.60;99.90;;;;;;5093936;28;20046;-79
2024/01/02 03:11:32;;;;;;;0.95;0.10;;;7.60;99.90;;;;;;5109000;28;20423;-79
2024/01/02 03:13:58;;;;;;;0.32;0.10;;;7.60;99.90;;;;;;5103849;28;20023;-79
2024/01/02 03:16:24;;;;;;;0.98;0.10;;;7.50;99.90;;;;;;5103844;28;20077;-79
2024/01/02 03:18:50;;;;;;;1.38;0.10;;;7.60;99.90;;;;;;5109229;28;20031;-79
2024/01/02 03:21:16;;;;;;;1.73;0.10;;;7.50;99.90;;;;;;5109345;28;20023;-78
2024/01/02 03:23:42;;;;;;;1.95;0.10;;;7.50;99.90;;;;;;5093896;28;20106;-79
2024/01/02 03:26:10;;;;;;;1.45;0.10;;;7.50;99.90;;;;;;5109984;28;20027;-78
2024/01/02 03:28:36;;;;;;;1.35;0.20;;;7.50;99.90;;;;;;5111507;28;20050;-79
2024/01/02 03:31:03;;;;;;;0.80;0.10;;;7.50;99.90;;;;;;5109020;28;20395;-78
2024/01/02 03:33:29;;;;;;;0.77;0.10;;;7.60;99.90;;;;;;5111298;28;20024;-78
2024/01/02 03:35:54;;;;;;;1.02;0.10;;;7.60;99.90;;;;;;5105942;28;20030;-78
2024/01/02 03:38:20;;;;;;;0.55;0.10;;;7.60;99.90;;;;;;5106499;28;20019;-78
2024/01/02 03:40:45;;;;;;;2.72;0.20;;;7.60;99.90;;;;;;5108926;28;20023;-79
2024/01/02 03:43:11;;;;;;;0.57;0.08;;;7.60;99.90;;;;;;5111936;28;20020;-78
2024/01/02 03:45:37;;;;;;;0.60;0.10;;;7.60;99.90;;;;;;5111320;28;20491;-78
2024/01/02 03:48:03;;;;;;;0.90;0.20;;;7.60;99.90;;;;;;5109015;28;20422;-78
2024/01/02 03:50:28;;;;;;;0.55;0.10;;;7.60;99.90;;;;;;5108971;28;20351;-78
2024/01/02 03:52:54;;;;;;;13.65;0.90;;;7.60;99.90;;;;;;5106654;28;20027;-78
2024/01/02 03:55:20;;;;;;;2.33;0.10;;;7.60;99.90;;;;;;5109132;28;20479;-78
2024/01/02 03:57:45;;;;;;;0.20;0.10;;;7.60;99.90;;;;;;5106344;28;20100;-78
2024/01/02 04:00:11;;;;;;;2.60;0.20;;;7.60;99.90;;;;;;5110231;28;20027;-78
2024/01/02 04:02:37;;;;;;;0.20;0.10;;;7.60;99.90;;;;;;5107990;28;20472;-78
2024/01/02 04:05:03;;;;;;;0.30;0.10;;;7.60;99.90;;;;;;5108539;28;20023;-78
2024/01/02 04:07:29;;;;;;;0.38;0.13;;;7.60;99.90;;;;;;5108312;28;20082;-79
2024/01/02 04:09:55;;;;;;;0.93;0.25;;;7.70;99.90;;;;;;5109452;28;20059;-78
2024/01/02 04:12:20;;;;;;;0.28;0.10;;;7.70;99.90;;;;;;5103755;28;20027;-78
2024/01/02 04:14:46;;;;;;;0.47;0.35;;;7.70;99.90;;;;;;5101287;28;20043;-78
2024/01/02 04:17:11;;;;;;;0.30;0.10;;;7.70;99.90;;;;;;5099784;28;20028;-78
2024/01/02 04:19:37;;;;;;;0.70;0.10;;;7.70;99.90;;;;;;5081022;28;20456;-78
2024/01/02 04:22:04;;;;;;;0.22;0.10;;;7.80;99.90;;;;;;5105971;28;20035;-78
2024/01/02 04:24:30;;;;;;;0.20;0.10;;;7.80;99.90;;;;;;5106498;28;20055;-78
2024/01/02 04:26:55;;;;;;;0.20;0.10;;;7.80;99.90;;;;;;5105274;28;20457;-78
2024/01/02 04:29:21;;;;;;;0.38;0.10;;;7.80;99.90;;;;;;5101107;28;20414;-77
2024/01/02 04:31:47;;;;;;;0.20;0.10;;;7.90;99.90;;;;;;5108265;28;20027;-78
2024/01/02 04:34:12;;;;;;;0.25;0.10;;;7.90;99.90;;;;;;5107065;28;20540;-78
2024/01/02 04:36:40;;;;;;;0.25;0.10;;;8.00;99.90;;;;;;5085918;28;20027;-78
2024/01/02 04:39:06;;;;;;;0.65;0.15;;;8.00;99.90;;;;;;5108291;28;20032;-78
2024/01/02 04:41:32;;;;;;;0.30;0.10;;;8.10;99.90;;;;;;5110060;28;20028;-78
2024/01/02 04:43:57;;;;;;;0.38;0.10;;;8.10;99.90;;;;;;5109915;28;20028;-79
2024/01/02 04:46:23;;;;;;;0.20;0.10;;;8.10;99.90;;;;;;5108881;28;20398;-78
2024/01/02 04:48:49;;;;;;;1.27;0.10;;;8.20;99.90;;;;;;5111708;28;20040;-78
2024/01/02 04:51:14;;;;;;;0.47;0.10;;;8.20;99.90;;;;;;5109434;28;20383;-78
2024/01/02 04:53:40;;;;;;;0.50;0.10;;;8.30;99.90;;;;;;5102173;28;20036;-78
2024/01/02 04:56:06;;;;;;;1.40;0.10;;;8.30;99.90;;;;;;5107902;28;20032;-79
2024/01/02 04:58:32;;;;;;;0.45;0.10;;;8.30;99.90;;;;;;5083487;28;20755;-78
2024/01/02 05:00:57;;;;;;;1.38;0.10;;;8.40;99.90;;;;;;5097927;28;20108;-78
2024/01/02 05:03:23;;;;;;;0.50;0.20;;;8.40;99.90;;;;;;5108986;28;20016;-78
2024/01/02 05:05:48;;;;;;;0.20;0.10;;;8.50;99.90;;;;;;5108561;28;20065;-78
2024/01/02 05:08:14;;;;;;;0.32;0.20;;;8.50;99.90;;;;;;5105514;28;20032;-77
2024/01/02 05:10:40;;;;;;;0.47;0.25;;;8.60;99.90;;;;;;5087834;28;20537;-78
2024/01/02 05:13:05;;;;;;;0.45;0.30;;;8.60;99.90;;;;;;5090849;28;20039;-78
2024/01/02 05:15:31;;;;;;;0.60;0.30;;;8.70;99.90;;;;;;5102727;28;20022;-78
2024/01/02 05:17:56;;;;;;;0.50;0.30;;;8.70;99.90;;;;;;5110952;28;20065;-79
2024/01/02 05:20:22;;;;;;;0.70;0.40;;;8.80;99.90;;;;;;5106110;28;20026;-78
2024/01/02 05:22:48;;;;;;;1.00;0.38;;;8.80;99.90;;;;;;5108301;28;20558;-78
2024/01/02 05:25:13;;;;;;;0.80;0.40;;;8.90;99.90;;;;;;5105182;28;20023;-78
2024/01/02 05:27:39;;;;;;;1.02;0.22;;;8.90;99.90;;;;;;5109445;28;20043;-78
2024/01/02 05:30:06;;;;;;;0.95;0.35;;;9.00;99.90;;;;;;5106805;28;20051;-78
2024/01/02 05:32:31;;;;;;;0.40;0.22;;;9.00;99.90;;;;;;5102514;28;20383;-78
2024/01/02 05:34:57;;;;;;;0.50;0.30;;;9.10;99.90;;;;;;5106404;28;20111;-78
2024/01/02 05:37:22;;;;;;;0.70;0.30;;;9.20;99.90;;;;;;5105446;28;20024;-78
2024/01/02 05:39:48;;;;;;;1.13;0.30;;;9.20;99.90;;;;;;5108662;28;20024;-78
2024/01/02 05:42:13;;;;;;;0.65;0.20;;;9.20;99.90;;;;;;5109888;28;20417;-78
2024/01/02 05:44:39;;;;;;;2.17;0.30;;;9.30;99.90;;;;;;5107609;28;20028;-77
2024/01/02 05:47:05;;;;;;;0.57;0.40;;;9.40;99.90;;;;;;5113679;28;20043;-78
2024/01/02 05:49:30;;;;;;;1.42;0.40;;;9.40;99.90;;;;;;5113013;28;20101;-78
2024/01/02 05:51:56;;;;;;;0.80;0.40;;;9.50;99.90;;;;;;5112603;28;20034;-78
2024/01/02 05:54:22;;;;;;;1.40;0.40;;;9.60;99.90;;;;;;5089589;28;20024;-78
2024/01/02 05:56:48;;;;;;;0.95;0.50;;;9.60;99.90;;;;;;5101937;28;20075;-78
2024/01/02 05:59:14;;;;;;;2.45;0.50;;;9.70;99.90;;;;;;5104513;28;20356;-79
2024/01/02 06:01:39;;;;;;;1.50;0.50;;;9.70;99.90;;;;;;5103896;28;20305;-79
2024/01/02 06:04:05;;;;;;;1.27;0.40;;;9.80;99.90;;;;;;5102980;28;20039;-80
2024/01/02 06:06:30;;;;;;;0.95;0.47;;;9.80;99.90;;;;;;5106076;27;20028;-79
2024/01/02 06:08:56;;;;;;;2.35;0.60;;;9.80;99.90;;;;;;5103769;28;20483;-79
2024/01/02 06:11:21;;;;;;;1.35;0.50;;;9.90;99.90;;;;;;5105709;28;20020;-80
2024/01/02 06:13:47;;;;;;;1.40;0.68;;;10.00;99.90;;;;;;5110262;28;20031;-80
2024/01/02 06:16:13;;;;;;;1.40;0.50;;;10.00;99.90;;;;;;5090068;28;20114;-80
2024/01/02 06:18:38;;;;;;;1.40;0.60;;;10.10;99.90;;;;;;5089618;28;20024;-80
2024/01/02 06:21:04;;;;;;;1.70;0.68;;;10.20;99.90;;;;;;5104860;28;20092;-80
2024/01/02 06:23:33;;;;;;;1.77;0.68;;;10.20;99.90;;;;;;5105441;28;20106;-80
2024/01/02 06:25:59;;;;;;;1.95;0.90;;;10.30;99.90;;;;;;5102791;28;20652;-80
2024/01/02 06:28:25;;;;;;;1.92;1.05;;;10.30;99.90;;;;;;5109561;28;20407;-80
2024/01/02 06:30:51;;;;;;;2.15;1.05;;;10.40;99.90;;;;;;5099426;28;20035;-79
2024/01/02 06:33:16;;;;;;;2.47;1.40;;;10.40;99.90;;;;;;5112322;28;20031;-80
2024/01/02 06:35:42;;;;;;;2.60;1.60;;;10.50;99.90;;;;;;5102833;28;20046;-80
2024/01/02 06:38:09;;;;;;;4.60;1.70;;;10.50;99.90;;;;;;5111942;28;20027;-79
2024/01/02 06:40:35;;;;;;;3.63;2.60;;;10.60;99.90;;;;;;5105744;28;20023;-80
2024/01/02 06:43:00;;;;;;;5.15;2.88;;;10.60;99.90;;;;;;5114177;28;20038;-81
2024/01/02 06:45:26;;;;;;;9.10;3.40;;;10.70;99.90;;;;;;5105109;28;20016;-80
2024/01/02 06:47:51;;;;;;;4.55;3.53;;;10.80;99.90;;;;;;5095195;28;20059;-80
2024/01/02 06:50:17;;;;;;;4.90;3.50;;;10.80;99.90;;;;;;5110593;28;20027;-78
2024/01/02 06:52:42;;;;;;;4.88;3.60;;;10.80;99.90;;;;;;5111916;28;20024;-80
2024/01/02 06:55:08;;;;;;;7.85;3.80;;;10.90;99.90;;;;;;5107072;28;20028;-80
2024/01/02 06:57:34;;;;;;;4.80;3.70;;;10.90;99.90;;;;;;5111067;28;20055;-80
2024/01/02 06:59:59;;;;;;;8.23;4.68;;;11.00;99.90;;;;;;5109649;28;20027;-80
2024/01/02 07:02:25;;;;;;;8.15;4.75;;;11.00;99.90;;;;;;5108837;27;20095;-81
2024/01/02 07:04:50;;;;;;;12.20;4.88;;;11.00;99.90;;;;;;5108721;28;20024;-81
2024/01/02 07:07:16;;;;;;;7.60;4.90;;;11.00;99.90;;;;;;5100116;28;20043;-81
2024/01/02 07:09:42;;;;;;;7.88;5.07;;;11.00;99.90;;;;;;5086124;28;20464;-82
2024/01/02 07:12:07;;;;;;;9.73;5.68;;;11.10;99.90;;;;;;5101476;27;20064;-81
2024/01/02 07:14:33;;;;;;;7.32;5.35;;;11.10;99.90;;;;;;5099039;28;20027;-81
2024/01/02 07:16:59;;;;;;;11.63;5.28;;;11.10;99.90;;;;;;5081482;28;20479;-82
2024/01/02 07:19:25;;;;;;;14.10;6.35;;;11.10;99.90;;;;;;5099006;28;20057;-82
2024/01/02 07:21:51;;;;;;;11.00;5.78;;;11.20;99.90;;;;;;5106215;28;20146;-82
2024/01/02 07:24:16;;;;;;;11.13;6.05;;;11.20;99.90;;;;;;5097960;27;20490;-82
2024/01/02 07:26:42;;;;;;;14.77;5.55;;;11.20;99.90;;;;;;5100010;28;20111;-83
2024/01/02 07:29:08;;;;;;;11.32;5.72;;;11.30;99.90;;;;;;5102149;28;20028;-83
2024/01/02 07:31:35;;;;;;;14.38;4.68;;;11.30;99.90;;;;;;5086814;28;20024;-82
2024/01/02 07:34:01;;;;;;;17.90;5.43;;;11.40;99.90;;;;;;5105966;28;20016;-81
2024/01/02 07:36:27;;;;;;;13.68;5.50;;;11.40;99.90;;;;;;5084733;28;20062;-81
2024/01/02 07:38:53;;;;;;;15.82;4.35;;;11.40;99.90;;;;;;5110938;28;20383;-82
2024/01/02 07:41:18;;;;;;;15.35;4.05;;;11.40;99.90;;;;;;5103368;28;20494;-81
2024/01/02 07:43:44;;;;;;;16.90;3.78;;;11.50;99.90;;;;;;5103812;28;20031;-82
2024/01/02 07:46:12;;;;;;;14.95;3.45;;;11.50;99.90;;;;;;5102661;28;20056;-81
2024/01/02 07:48:38;;;;;;;14.45;3.72;;;11.50;99.90;;;;;;5104608;28;20024;-81
2024/01/02 07:51:04;;;;;;;11.40;2.90;;;11.50;99.90;;;;;;5102903;28;20031;-82
2024/01/02 07:53:32;;;;;;;14.00;3.60;;;11.50;99.90;;;;;;5078894;28;20035;-82
2024/01/02 07:55:57;;;;;;;15.43;2.70;;;11.50;99.90;;;;;;5090587;28;20024;-82
2024/01/02 07:58:23;;;;;;;18.70;3.85;;;11.60;99.90;;;;;;5110628;28;20031;-82
2024/01/02 08:00:49;;;;;;;15.48;3.00;;;11.60;99.90;;;;;;5112708;28;20132;-82
2024/01/02 08:03:14;;;;;;;9.90;2.33;;;11.60;99.90;;;;;;5111389;28;20360;-82
2024/01/02 08:05:40;;;;;;;16.02;3.75;;;11.60;99.90;;;;;;5111046;28;20032;-82
2024/01/02 08:08:06;;;;;;;18.55;4.43;;;11.50;99.90;;;;;;5100111;28;20085;-82
2024/01/02 08:10:32;;;;;;;18.60;3.92;;;11.50;99.90;;;;;;5097735;28;20417;-82
2024/01/02 08:12:58;;;;;;;12.13;3.40;;;11.50;99.90;;;;;;5093858;28;20513;-82
2024/01/02 08:15:24;;;;;;;16.45;3.38;;;11.50;99.90;;;;;;5110160;28;20035;-82
2024/01/02 08:17:50;;;;;;;20.75;4.88;;;11.60;99.90;;;;;;5111148;28;20032;-82
2024/01/02 08:20:16;;;;;;;17.30;3.55;;;11.50;99.90;;;;;;5073772;28;20024;-82
2024/01/02 08:22:41;;;;;;;17.40;4.07;;;11.50;99.90;;;;;;5078387;28;20459;-82
2024/01/02 08:25:08;;;;;;;20.75;4.00;;;11.50;99.90;;;;;;5104874;28;20031;-82
2024/01/02 08:27:34;;;;;;;17.35;3.97;;;11.50;99.90;;;;;;5104980;28;20499;-82
2024/01/02 08:30:00;;;;;;;18.95;4.68;;;11.50;99.90;;;;;;5094071;28;20042;-82
2024/01/02 08:32:25;;;;;;;15.30;4.13;;;11.50;99.90;;;;;;5112026;28;20036;-82
2024/01/02 08:34:51;;;;;;;16.27;4.47;;;11.60;99.90;;;;;;5112077;28;20360;-82
2024/01/02 08:37:17;;;;;;;19.98;4.10;;;11.60;99.90;;;;;;5109751;28;20076;-83
2024/01/02 08:39:43;;;;;;;27.42;5.65;;;11.60;99.90;;;;;;5093286;28;20031;-82
2024/01/02 08:42:08;;;;;;;18.30;3.55;;;11.60;99.90;;;;;;5078834;28;20024;-82
2024/01/02 08:44:34;;;;;;;16.17;3.30;;;11.60;99.90;;;;;;5091485;28;20536;-82
2024/01/02 08:47:00;;;;;;;20.42;3.92;;;11.60;99.90;;;;;;5092933;28;20056;-82
2024/01/02 08:49:27;;;;;;;15.35;3.47;;;11.60;99.90;;;;;;5096455;28;20034;-82
2024/01/02 08:51:52;;;;;;;20.45;3.67;;;11.60;99.90;;;;;;5093708;28;20027;-82
2024/01/02 08:54:18;;;;;;;21.50;4.30;;;11.70;99.90;;;;;;5079155;28;20020;-82
2024/01/02 08:56:43;;;;;;;18.38;2.90;;;11.70;99.90;;;;;;5111611;28;20032;-82
2024/01/02 08:59:09;;;;;;;16.10;3.22;;;11.70;99.90;;;;;;5109455;28;20490;-82
2024/01/02 09:01:34;;;;;;;16.27;3.35;;;11.70;99.90;;;;;;5093063;28;20042;-82
2024/01/02 09:04:00;;;;;;;20.33;3.35;;;11.80;99.90;;;;;;5106960;28;20027;-82
2024/01/02 09:06:26;;;;;;;14.70;2.78;;;11.80;99.90;;;;;;5075541;28;20035;-82
2024/01/02 09:08:51;;;;;;;20.05;2.75;;;11.80;99.90;;;;;;5074045;28;20426;-82
2024/01/02 09:11:17;;;;;;;21.60;2.88;;;11.80;99.90;;;;;;5091013;28;20034;-82
2024/01/02 09:13:42;;;;;;;18.33;2.90;;;11.80;99.90;;;;;;5111789;28;20031;-83
2024/01/02 09:16:08;;;;;;;17.45;2.78;;;11.80;99.90;;;;;;5092932;28;20016;-82
2024/01/02 09:18:34;;;;;;;16.08;3.47;;;11.80;99.90;;;;;;5091919;28;20118;-82
2024/01/02 09:20:59;;;;;;;17.35;3.38;;;11.80;99.90;;;;;;5096956;28;20058;-82
2024/01/02 09:23:25;;;;;;;15.63;3.97;;;11.80;99.90;;;;;;5097042;28;20433;-82
2024/01/02 09:25:53;;;;;;;16.10;3.85;;;11.80;99.90;;;;;;5091952;28;20016;-82
2024/01/02 09:28:21;;;;;;;19.20;4.72;;;11.80;99.90;;;;;;5094857;28;20036;-82
2024/01/02 09:30:47;;;;;;;15.32;5.97;;;11.80;99.90;;;;;;5107559;28;20027;-82
2024/01/02 09:33:13;;;;;;;17.02;5.75;;;11.80;99.90;;;;;;5114651;28;20027;-82
2024/01/02 09:35:38;;;;;;;15.48;7.25;;;11.80;99.90;;;;;;5114980;28;20016;-82
2024/01/02 09:38:04;;;;;;;21.35;8.05;;;11.90;99.90;;;;;;5099373;28;20035;-83
2024/01/02 09:41:01;;;;;;;21.95;8.43;;;11.80;99.90;;;;;;5113463;28;20063;-82
2024/01/02 09:43:45;;;;;;;18.83;7.55;;;11.90;99.90;;;;;;5096991;28;20498;-82
2024/01/02 09:46:44;;;;;;;13.82;6.97;;;11.90;99.90;;;;;;5091439;28;20521;-82
2024/01/02 09:49:21;;;;;;;20.70;7.63;;;11.90;99.90;;;;;;5047565;28;20062;-82
2024/01/02 09:52:17;;;;;;;16.00;6.60;;;12.00;99.90;;;;;;5089841;28;20521;-82
2024/01/02 09:55:09;;;;;;;15.27;6.70;;;12.00;99.90;;;;;;5076342;28;20029;-82
2024/01/02 09:57:40;;;;;;;15.77;6.32;;;12.00;99.90;;;;;;5077820;28;20404;-82
2024/01/02 10:00:11;;;;;;;14.63;6.72;;;12.00;99.90;;;;;;5090304;28;20035;-82
2024/01/02 10:03:04;;;;;;;15.40;6.28;;;12.00;99.90;;;;;;5091849;28;20031;-83
2024/01/02 10:05:32;;;;;;;10.57;5.82;;;12.10;99.90;;;;;;5078958;28;20032;-82
2024/01/02 10:08:19;;;;;;;12.20;5.75;;;12.10;99.90;;;;;;5082457;28;20082;-82
2024/01/02 10:10:55;;;;;;;11.38;5.20;;;12.10;99.90;;;;;;5086110;28;20032;-82
2024/01/02 10:13:27;;;;;;;9.13;4.75;;;12.10;99.90;;;;;;5084853;28;20494;-82
2024/01/02 10:16:05;;;;;;;9.18;4.78;;;12.10;99.90;;;;;;5083606;28;20040;-82
2024/01/02 10:18:49;;;;;;;8.05;4.00;;;12.00;99.90;;;;;;5080668;28;20036;-82
2024/01/02 10:21:23;;;;;;;6.97;3.88;;;12.00;99.90;;;;;;5086696;28;20391;-83
2024/01/02 10:24:11;;;;;;;6.88;3.97;;;12.10;99.90;;;;;;5081917;28;20016;-82
2024/01/02 10:27:00;;;;;;;8.23;2.85;;;12.00;99.90;;;;;;5086299;28;20041;-82
2024/01/02 10:29:37;;;;;;;6.47;2.95;;;12.10;99.90;;;;;;5089019;28;20035;-81
2024/01/02 10:32:11;;;;;;;4.30;2.35;;;12.10;99.90;;;;;;5087557;28;20020;-82
2024/01/02 10:35:04;;;;;;;3.85;1.48;;;12.10;99.90;;;;;;5080229;28;20029;-82
2024/01/02 10:37:36;;;;;;;1.85;1.02;;;12.00;99.90;;;;;;5077080;28;20168;-82
2024/01/02 10:40:07;;;;;;;2.05;0.90;;;12.00;99.90;;;;;;5088851;28;20028;-82
2024/01/02 10:42:38;;;;;;;2.78;0.82;;;12.10;99.90;;;;;;5087720;28;20028;-81
2024/01/02 10:45:25;;;;;;;2.53;1.48;;;12.00;99.90;;;;;;5089388;28;20032;-81
2024/01/02 10:48:01;;;;;;;1.73;0.50;;;12.00;99.90;;;;;;5086108;28;20039;-81
2024/01/02 10:50:42;;;;;;;0.90;0.50;;;12.10;99.90;;;;;;5104021;28;20391;-80
2024/01/02 10:53:38;;;;;;;2.15;0.45;;;12.00;99.90;;;;;;5092422;28;20332;-80
2024/01/02 10:56:39;;;;;;;1.38;0.40;;;12.00;99.90;;;;;;5086221;28;20107;-80
2024/01/02 10:59:35;;;;;;;1.05;0.40;;;12.00;99.90;;;;;;5079057;28;20024;-80
2024/01/02 11:02:44;;;;;;;0.80;0.30;;;12.00;99.90;;;;;;5081018;28;20023;-80
2024/01/02 11:05:39;;;;;;;2.55;0.40;;;12.00;99.90;;;;;;5081005;28;20029;-80
2024/01/02 11:08:36;;;;;;;0.85;0.40;;;12.00;99.90;;;;;;5086420;28;20044;-80
2024/01/02 11:11:04;;;;;;;0.43;0.30;;;12.00;99.90;;;;;;5089284;28;20462;-80
2024/01/02 11:13:30;;;;;;;1.33;0.38;;;12.00;99.90;;;;;;5088473;28;20020;-80
2024/01/02 11:16:00;;;;;;;1.35;0.40;;;12.00;99.90;;;;;;5090140;28;20035;-81
2024/01/02 11:18:31;;;;;;;0.93;0.30;;;12.10;99.90;;;;;;5084793;28;20028;-80
2024/01/02 11:21:22;;;;;;;0.90;0.50;;;12.10;99.90;;;;;;5090505;28;20097;-80
2024/01/02 11:23:53;;;;;;;1.13;0.40;;;12.10;99.90;;;;;;5092318;28;20016;-80
2024/01/02 11:26:32;;;;;;;2.45;0.38;;;12.10;99.90;;;;;;5092852;28;20024;-80
2024/01/02 11:29:01;;;;;;;0.80;0.40;;;12.10;99.90;;;;;;5087684;28;20040;-80
2024/01/02 11:31:30;;;;;;;1.25;0.50;;;12.10;99.90;;;;;;5086127;28;20107;-81
2024/01/02 11:34:32;;;;;;;0.77;0.30;;;12.10;99.90;;;;;;5091813;28;20103;-80
2024/01/02 11:37:04;;;;;;;0.80;0.32;;;12.10;99.90;;;;;;5084439;28;20032;-80
2024/01/02 11:39:39;;;;;;;0.82;0.30;;;12.00;99.90;;;;;;5078837;28;20878;-80
2024/01/02 11:42:45;;;;;;;0.50;0.25;;;12.10;99.90;;;;;;5088901;28;20036;-80
2024/01/02 11:45:17;;;;;;;0.30;0.20;;;12.00;99.90;;;;;;5091118;28;20020;-80
2024/01/02 11:48:00;;;;;;;0.63;0.20;;;12.00;99.90;;;;;;5091793;28;20483;-81
2024/01/02 11:50:36;;;;;;;0.38;0.17;;;12.10;99.90;;;;;;5112174;28;20027;-80
2024/01/02 11:53:05;;;;;;;0.55;0.20;;;12.00;99.90;;;;;;5105595;28;20110;-81
2024/01/02 11:55:51;;;;;;;3.60;0.17;;;12.00;99.90;;;;;;5078632;28;20043;-80
2024/01/02 11:58:29;;;;;;;0.30;0.10;;;12.00;99.90;;;;;;5103077;28;20111;-80
2024/01/02 12:01:20;;;;;;;1.20;0.10;;;12.00;99.90;;;;;;5112514;28;20024;-80
2024/01/02 12:04:39;;;;;;;0.50;0.05;;;12.00;99.90;;;;;;5108395;28;20460;-81
2024/01/02 12:07:05;;;;;;;1.75;0.10;;;11.90;99.90;;;;;;5022714;28;20041;-81
2024/01/02 12:09:36;;;;;;;0.10;0.08;;;11.90;99.90;;;;;;5091710;28;20110;-80
2024/01/02 12:12:22;;;;;;;0.20;0.10;;;11.80;99.90;;;;;;5099818;27;20035;-80
2024/01/02 12:15:12;;;;;;;0.40;0.08;;;11.80;99.90;;;;;;5108979;28;20284;-80
2024/01/02 12:18:17;;;;;;;0.10;0.10;;;11.80;99.90;;;;;;5103267;28;20118;-80
2024/01/02 12:20:51;;;;;;;0.50;0.30;;;11.80;99.90;;;;;;5096665;28;20036;-80
2024/01/02 12:23:18;;;;;;;0.40;0.30;;;11.80;99.90;;;;;;5110364;28;20024;-80
2024/01/02 12:25:48;;;;;;;0.63;0.40;;;11.70;99.90;;;;;;5109530;28;20028;-79
2024/01/02 12:28:14;;;;;;;0.70;0.40;;;11.70;99.90;;;;;;5099588;27;20028;-81
2024/01/02 12:30:47;;;;;;;0.85;0.30;;;11.60;99.90;;;;;;5105098;28;20032;-80
2024/01/02 12:33:34;;;;;;;0.38;0.20;;;11.60;99.90;;;;;;5106931;28;20416;-80
2024/01/02 12:36:18;;;;;;;0.90;0.40;;;11.60;99.90;;;;;;5083967;28;20031;-80
2024/01/02 12:38:57;;;;;;;1.88;0.30;;;11.50;99.90;;;;;;5084858;28;20024;-80
2024/01/02 12:41:25;;;;;;;0.55;0.30;;;11.50;99.90;;;;;;5099255;28;20111;-80
2024/01/02 12:43:55;;;;;;;0.47;0.30;;;11.40;99.90;;;;;;5098185;28;20032;-79
2024/01/02 12:46:43;;;;;;;0.40;0.30;;;11.40;99.90;;;;;;5106508;28;20036;-80
2024/01/02 12:49:11;;;;;;;0.50;0.20;;;11.40;99.90;;;;;;5089480;28;20032;-80
2024/01/02 12:51:38;;;;;;;0.40;0.20;;;11.30;99.90;;;;;;5109769;28;20023;-79
2024/01/02 12:54:05;;;;;;;0.90;0.20;;;11.30;99.90;;;;;;5105877;28;20089;-80
2024/01/02 12:56:34;;;;;;;0.50;0.10;;;11.30;99.90;;;;;;5086810;28;20361;-81
2024/01/02 12:59:03;;;;;;;0.40;0.15;;;11.20;99.90;;;;;;5101343;28;20038;-78